Time;durP1;ratioP1;P1;durP2;ratioP2;P2;SDS_P1;SDS_P2;PMS_P1;PMS_P2;Temp;Humidity;BMP_temperature;BMP_pressure;BME280_temperature;BME280_humidity;BME280_pressure;Samples;Min_cycle;Max_cycle;Signal;HPM_P1;HPM_P2
2021/04/13 00:02:12;;;;;;;3.17;2.22;;;3.30;1.00;;;;;;5035561;28;20670;-63
2021/04/13 00:04:38;;;;;;;5.93;1.80;;;3.30;1.00;;;;;;5035277;28;20182;-64
2021/04/13 00:07:04;;;;;;;2.50;1.80;;;3.40;1.00;;;;;;5035687;28;20596;-63
2021/04/13 00:09:34;;;;;;;2.93;2.17;;;3.30;1.00;;;;;;5035353;28;20197;-65
2021/04/13 00:12:08;;;;;;;2.03;1.60;;;3.40;1.00;;;;;;5035370;28;20438;-64
2021/04/13 00:14:37;;;;;;;4.63;2.78;;;3.50;1.00;;;;;;5035086;28;20194;-63
2021/04/13 00:17:08;;;;;;;2.17;1.65;;;3.50;1.00;;;;;;5035202;28;20587;-62
2021/04/13 00:19:47;;;;;;;3.30;2.70;;;3.30;1.00;;;;;;5033391;28;20507;-62
2021/04/13 00:22:13;;;;;;;5.97;2.42;;;3.30;1.00;;;;;;5035189;28;20209;-63
2021/04/13 00:24:40;;;;;;;3.08;2.63;;;3.20;1.00;;;;;;5034881;28;20186;-62
2021/04/13 00:27:06;;;;;;;2.47;2.17;;;3.10;1.00;;;;;;5035026;28;20490;-60
2021/04/13 00:29:32;;;;;;;3.07;2.77;;;3.10;1.00;;;;;;5035056;28;20193;-61
2021/04/13 00:32:05;;;;;;;2.73;2.03;;;3.00;1.00;;;;;;5035210;28;20429;-62
2021/04/13 00:37:26;;;;;;;4.50;2.00;;;3.00;1.00;;;;;;5034932;28;20237;-61
2021/04/13 00:40:12;;;;;;;9.25;3.50;;;2.90;1.00;;;;;;5034543;28;20197;-61
2021/04/13 00:42:40;;;;;;;2.58;2.33;;;2.80;1.00;;;;;;5034685;28;20265;-62
2021/04/13 00:45:18;;;;;;;3.58;3.28;;;2.80;1.00;;;;;;5034307;28;20178;-62
2021/04/13 00:47:45;;;;;;;2.85;2.65;;;2.80;1.00;;;;;;5034568;28;20185;-62
2021/04/13 00:50:30;;;;;;;4.05;2.60;;;2.80;1.00;;;;;;5034698;28;20205;-62
2021/04/13 00:52:58;;;;;;;3.53;2.00;;;2.70;1.00;;;;;;5034375;28;20247;-61
2021/04/13 00:55:31;;;;;;;3.40;2.38;;;2.70;1.00;;;;;;5034122;28;20182;-61
2021/04/13 00:58:16;;;;;;;4.13;2.80;;;2.70;1.00;;;;;;5034331;28;20218;-61
2021/04/13 01:00:48;;;;;;;3.85;2.75;;;2.70;6.80;;;;;;5034335;28;20178;-61
2021/04/13 01:03:16;;;;;;;3.38;2.28;;;2.70;17.30;;;;;;5034581;28;20185;-61
2021/04/13 01:05:55;;;;;;;2.70;2.33;;;2.70;19.30;;;;;;5034241;28;20480;-61
2021/04/13 01:08:29;;;;;;;2.90;2.60;;;2.60;29.60;;;;;;5033106;28;20273;-63
2021/04/13 01:10:57;;;;;;;2.78;2.40;;;2.60;39.50;;;;;;5034421;28;20232;-63
2021/04/13 01:13:42;;;;;;;2.00;1.90;;;2.70;41.00;;;;;;5033980;28;20500;-63
2021/04/13 01:16:09;;;;;;;2.83;2.40;;;2.60;43.50;;;;;;5034093;28;20189;-63
2021/04/13 01:18:38;;;;;;;3.45;2.42;;;2.60;50.60;;;;;;5033911;28;20213;-63
2021/04/13 01:21:27;;;;;;;5.47;2.53;;;2.60;62.70;;;;;;5033937;28;20185;-63
2021/04/13 01:24:05;;;;;;;4.30;2.35;;;2.60;80.00;;;;;;5033689;28;20186;-63
2021/04/13 01:26:33;;;;;;;3.00;2.22;;;2.50;92.00;;;;;;5033914;28;20182;-63
2021/04/13 01:28:59;;;;;;;2.92;2.20;;;2.50;98.30;;;;;;5033679;28;20251;-65
2021/04/13 01:31:50;;;;;;;8.93;2.80;;;2.50;99.90;;;;;;5033617;28;20174;-65
2021/04/13 01:34:37;;;;;;;3.08;2.50;;;2.50;99.90;;;;;;5033553;28;20231;-62
2021/04/13 01:37:18;;;;;;;2.65;2.05;;;2.50;99.90;;;;;;5033701;28;20205;-64
2021/04/13 01:39:53;;;;;;;4.90;3.00;;;2.50;99.90;;;;;;5033716;28;20259;-63
2021/04/13 01:42:23;;;;;;;3.80;2.70;;;2.50;99.90;;;;;;5033680;28;20549;-63
2021/04/13 01:44:51;;;;;;;6.53;2.45;;;2.40;99.90;;;;;;5033438;28;20583;-63
2021/04/13 01:47:20;;;;;;;3.92;2.97;;;2.40;99.90;;;;;;5032777;28;20186;-64
2021/04/13 01:49:59;;;;;;;3.58;2.50;;;2.40;99.90;;;;;;5033609;28;20178;-63
2021/04/13 01:52:32;;;;;;;2.67;2.42;;;2.40;99.90;;;;;;5033611;28;20236;-64
2021/04/13 01:55:06;;;;;;;2.38;2.08;;;2.40;99.90;;;;;;5033571;28;20636;-62
2021/04/13 01:57:58;;;;;;;9.27;2.90;;;2.40;99.90;;;;;;5033332;28;20545;-63
2021/04/13 02:00:32;;;;;;;4.05;2.90;;;2.40;99.90;;;;;;5025233;28;20255;-62
2021/04/13 02:03:06;;;;;;;4.15;3.03;;;2.40;99.90;;;;;;5033518;28;20171;-64
2021/04/13 02:05:35;;;;;;;6.07;2.17;;;2.30;99.90;;;;;;5033494;28;20199;-62
2021/04/13 02:08:28;;;;;;;4.60;2.97;;;2.30;99.90;;;;;;5033399;28;20190;-65
2021/04/13 02:11:00;;;;;;;3.67;2.78;;;2.30;99.90;;;;;;5033544;28;20243;-63
2021/04/13 02:13:33;;;;;;;4.13;3.35;;;2.30;99.90;;;;;;5033245;28;20170;-63
2021/04/13 02:16:09;;;;;;;6.10;2.75;;;2.30;99.90;;;;;;5033839;28;20185;-64
2021/04/13 02:18:42;;;;;;;4.70;3.33;;;2.20;99.90;;;;;;5033139;28;20711;-64
2021/04/13 02:21:31;;;;;;;7.10;3.70;;;2.20;99.90;;;;;;5033245;28;20293;-64
2021/04/13 02:24:18;;;;;;;5.75;3.20;;;2.20;99.90;;;;;;5033155;28;20611;-63
2021/04/13 02:26:54;;;;;;;3.10;2.38;;;2.20;99.90;;;;;;5033194;28;20277;-63
2021/04/13 02:29:22;;;;;;;3.67;3.00;;;2.20;99.90;;;;;;5032179;28;20189;-63
2021/04/13 02:32:14;;;;;;;4.65;3.40;;;2.20;99.90;;;;;;5033096;28;20190;-63
2021/04/13 02:34:47;;;;;;;3.35;2.42;;;2.20;99.90;;;;;;5026159;28;20190;-63
2021/04/13 02:37:41;;;;;;;4.95;2.70;;;2.20;99.90;;;;;;5033181;28;20268;-63
2021/04/13 02:40:12;;;;;;;3.83;2.60;;;2.20;99.90;;;;;;5033113;28;20218;-63
2021/04/13 02:42:43;;;;;;;4.57;2.95;;;2.20;99.90;;;;;;5033588;28;20522;-63
2021/04/13 02:45:22;;;;;;;3.90;3.13;;;2.10;99.90;;;;;;5036762;28;20188;-63
2021/04/13 02:47:49;;;;;;;4.18;3.22;;;2.20;99.90;;;;;;5036855;28;20247;-63
2021/04/13 02:50:20;;;;;;;3.40;2.65;;;2.10;99.90;;;;;;5036736;28;20174;-63
2021/04/13 02:52:50;;;;;;;3.47;2.88;;;2.10;99.90;;;;;;5036626;28;20195;-63
2021/04/13 02:55:25;;;;;;;3.60;2.33;;;2.20;99.90;;;;;;5036450;28;20603;-63
2021/04/13 02:57:52;;;;;;;6.40;2.90;;;2.20;99.90;;;;;;5035801;28;20247;-63
2021/04/13 03:00:31;;;;;;;2.47;2.28;;;2.10;99.90;;;;;;5036561;28;20257;-63
2021/04/13 03:03:28;;;;;;;8.10;2.70;;;2.20;99.90;;;;;;5036489;28;20622;-63
2021/04/13 03:05:55;;;;;;;3.63;2.30;;;2.20;99.90;;;;;;5027775;28;20197;-63
2021/04/13 03:08:21;;;;;;;4.18;2.80;;;2.10;99.90;;;;;;5035708;28;20608;-63
2021/04/13 03:11:04;;;;;;;4.60;3.05;;;2.20;99.90;;;;;;5036344;28;20178;-63
2021/04/13 03:13:35;;;;;;;4.57;2.72;;;2.20;99.90;;;;;;5036118;28;20614;-61
2021/04/13 03:16:03;;;;;;;3.80;2.25;;;2.20;99.90;;;;;;5036144;28;20201;-61
2021/04/13 03:18:50;;;;;;;2.85;2.45;;;2.20;99.90;;;;;;5036246;28;20312;-61
2021/04/13 03:21:27;;;;;;;5.72;2.35;;;2.30;99.90;;;;;;5036413;28;20257;-61
2021/04/13 03:23:54;;;;;;;2.88;2.40;;;2.20;99.90;;;;;;5035988;28;20292;-61
2021/04/13 03:26:25;;;;;;;6.70;2.97;;;2.20;99.90;;;;;;5036227;28;20193;-61
2021/04/13 03:28:56;;;;;;;6.57;2.88;;;2.20;99.90;;;;;;5036010;28;20178;-61
2021/04/13 03:31:23;;;;;;;4.30;2.55;;;2.20;99.90;;;;;;5035960;28;20178;-61
2021/04/13 03:33:50;;;;;;;5.03;3.03;;;2.20;99.90;;;;;;5035721;28;20197;-61
2021/04/13 03:36:24;;;;;;;4.82;3.00;;;2.30;99.90;;;;;;5035971;28;20179;-61
2021/04/13 03:38:55;;;;;;;6.82;2.72;;;2.20;99.90;;;;;;5036030;28;20225;-61
2021/04/13 03:41:22;;;;;;;5.20;2.47;;;2.20;99.90;;;;;;5036231;28;20269;-62
2021/04/13 03:43:54;;;;;;;3.42;2.38;;;2.20;99.90;;;;;;5035567;28;20174;-61
2021/04/13 03:46:22;;;;;;;5.60;2.97;;;2.20;99.90;;;;;;5035816;28;20199;-61
2021/04/13 03:48:49;;;;;;;5.95;3.00;;;2.30;99.90;;;;;;5035878;28;20174;-61
2021/04/13 03:51:29;;;;;;;11.55;3.40;;;2.30;99.90;;;;;;5035625;28;20518;-61
2021/04/13 03:53:55;;;;;;;5.32;4.28;;;2.20;99.90;;;;;;5035305;28;20247;-61
2021/04/13 03:56:24;;;;;;;3.67;2.80;;;2.20;99.90;;;;;;5035533;28;20599;-61
2021/04/13 03:58:55;;;;;;;5.97;3.50;;;2.20;99.90;;;;;;5035670;28;20247;-61
2021/04/13 04:01:25;;;;;;;3.58;2.60;;;2.20;99.90;;;;;;5035475;28;20556;-61
2021/04/13 04:03:59;;;;;;;3.60;2.80;;;2.10;99.90;;;;;;5035259;28;20190;-61
2021/04/13 04:06:47;;;;;;;6.43;3.25;;;2.10;99.90;;;;;;5035224;28;20637;-61
2021/04/13 04:09:21;;;;;;;4.80;3.35;;;2.10;99.90;;;;;;5035403;28;20182;-61
2021/04/13 04:11:49;;;;;;;11.65;3.78;;;2.10;99.90;;;;;;5035275;28;20185;-61
2021/04/13 04:14:24;;;;;;;3.83;3.40;;;2.10;99.90;;;;;;5034915;28;20495;-63
2021/04/13 04:16:50;;;;;;;6.47;3.63;;;2.20;99.90;;;;;;5035024;28;20221;-63
2021/04/13 04:19:23;;;;;;;3.63;3.10;;;2.20;99.90;;;;;;5035341;28;20181;-62
2021/04/13 04:22:01;;;;;;;7.13;3.90;;;2.30;99.90;;;;;;5035310;28;20173;-61
2021/04/13 04:24:37;;;;;;;4.43;3.42;;;2.20;99.90;;;;;;5035070;28;20562;-61
2021/04/13 04:27:05;;;;;;;6.93;3.40;;;2.20;99.90;;;;;;5035281;28;20598;-61
2021/04/13 04:29:31;;;;;;;7.45;3.50;;;2.10;99.90;;;;;;5034866;28;20380;-63
2021/04/13 04:32:10;;;;;;;8.07;3.33;;;2.10;99.90;;;;;;5034993;28;20178;-63
2021/04/13 04:34:56;;;;;;;5.55;2.88;;;2.20;99.90;;;;;;5034643;28;20186;-63
2021/04/13 04:37:29;;;;;;;6.53;3.63;;;2.20;99.90;;;;;;5034752;28;20214;-63
2021/04/13 04:40:28;;;;;;;5.25;3.97;;;2.30;99.90;;;;;;5034668;28;20195;-63
2021/04/13 04:43:01;;;;;;;4.38;3.97;;;2.30;99.90;;;;;;5034777;28;20634;-64
2021/04/13 04:45:49;;;;;;;5.03;3.78;;;2.30;99.90;;;;;;5034835;28;20611;-61
2021/04/13 04:48:28;;;;;;;5.40;3.35;;;2.40;99.90;;;;;;5034504;28;20171;-61
2021/04/13 04:50:58;;;;;;;5.38;3.20;;;2.40;99.90;;;;;;5034588;28;20223;-61
2021/04/13 04:53:26;;;;;;;4.30;2.95;;;2.40;99.90;;;;;;5034128;28;20174;-61
2021/04/13 04:55:54;;;;;;;5.80;3.42;;;2.40;99.90;;;;;;5034418;28;20244;-61
2021/04/13 04:58:20;;;;;;;4.30;3.33;;;2.30;99.90;;;;;;5034076;28;20452;-61
2021/04/13 05:00:47;;;;;;;3.58;2.47;;;2.40;99.90;;;;;;5034136;28;20497;-61
2021/04/13 05:03:14;;;;;;;5.25;3.00;;;2.50;99.90;;;;;;5033979;28;20190;-61
2021/04/13 05:05:40;;;;;;;6.55;3.38;;;2.60;99.90;;;;;;5033630;28;20194;-61
2021/04/13 05:08:06;;;;;;;5.40;3.43;;;2.80;99.90;;;;;;5034339;28;20194;-61
2021/04/13 05:10:31;;;;;;;4.80;3.30;;;3.20;99.90;;;;;;5033967;28;20182;-61
2021/04/13 05:12:57;;;;;;;3.70;3.07;;;3.70;99.90;;;;;;5033945;28;20866;-61
2021/04/13 05:15:22;;;;;;;7.00;3.57;;;4.00;99.90;;;;;;5034117;28;20219;-61
2021/04/13 05:17:48;;;;;;;6.80;3.27;;;4.20;46.30;;;;;;5033885;28;20541;-61
2021/04/13 05:20:15;;;;;;;6.53;3.47;;;4.20;1.00;;;;;;5033940;28;20230;-61
2021/04/13 05:22:41;;;;;;;3.80;3.33;;;4.10;1.00;;;;;;5033734;28;20498;-61
2021/04/13 05:25:07;;;;;;;5.30;3.00;;;4.30;1.00;;;;;;5033617;28;20175;-61
2021/04/13 05:27:33;;;;;;;8.03;3.53;;;5.00;1.00;;;;;;5033706;28;20191;-62
2021/04/13 05:29:58;;;;;;;5.43;3.00;;;5.80;99.90;;;;;;5033652;28;20184;-61
2021/04/13 05:32:24;;;;;;;4.53;3.70;;;6.60;1.00;;;;;;5033575;28;20180;-62
2021/04/13 05:34:49;;;;;;;8.57;3.80;;;6.60;1.00;;;;;;5033338;28;20664;-62
2021/04/13 05:37:15;;;;;;;6.33;3.30;;;6.70;1.00;;;;;;5033677;28;20203;-62
2021/04/13 05:39:40;;;;;;;5.90;3.77;;;7.20;99.90;;;;;;5033519;28;20258;-62
2021/04/13 05:42:06;;;;;;;5.20;2.67;;;7.70;1.00;;;;;;5033770;28;20184;-62
2021/04/13 05:44:33;;;;;;;4.27;2.10;;;8.40;1.00;;;;;;5033204;28;20192;-62
2021/04/13 05:46:59;;;;;;;4.38;2.60;;;8.50;1.00;;;;;;5033514;28;20440;-62
2021/04/13 05:49:25;;;;;;;4.35;2.70;;;7.50;99.90;;;;;;5033875;28;20226;-62
2021/04/13 05:51:51;;;;;;;4.50;2.60;;;6.60;1.00;;;;;;5033533;28;20656;-62
2021/04/13 05:54:16;;;;;;;3.53;2.00;;;6.70;99.90;;;;;;5033517;28;20288;-62
2021/04/13 05:56:43;;;;;;;5.07;2.20;;;7.80;1.00;;;;;;5033659;28;20194;-64
2021/04/13 05:59:11;;;;;;;8.80;2.80;;;8.60;1.00;;;;;;5033263;28;20192;-65
2021/04/13 06:01:37;;;;;;;2.70;2.20;;;9.50;99.90;;;;;;5033460;28;20613;-64
2021/04/13 06:04:04;;;;;;;5.63;2.33;;;9.70;1.00;;;;;;5033474;28;20219;-64
2021/04/13 06:06:31;;;;;;;2.42;2.22;;;9.10;1.00;;;;;;5032450;28;20184;-65
2021/04/13 06:08:56;;;;;;;7.07;2.45;;;9.00;1.00;;;;;;5033506;28;20264;-65
2021/04/13 06:11:27;;;;;;;4.50;1.80;;;8.80;1.00;;;;;;5033597;28;20287;-65
2021/04/13 06:13:58;;;;;;;8.10;2.72;;;8.90;1.00;;;;;;5033213;28;20439;-65
2021/04/13 06:16:28;;;;;;;3.17;1.92;;;9.30;1.00;;;;;;5033802;28;20181;-65
2021/04/13 06:18:53;;;;;;;4.93;1.55;;;10.00;99.90;;;;;;5035919;28;20578;-65
2021/04/13 06:21:19;;;;;;;2.20;2.00;;;10.00;99.90;;;;;;5037474;28;20184;-64
2021/04/13 06:23:45;;;;;;;4.73;2.20;;;8.90;1.00;;;;;;5037326;28;20545;-64
2021/04/13 06:26:11;;;;;;;5.43;1.90;;;7.90;99.90;;;;;;5037318;28;20212;-64
2021/04/13 06:28:36;;;;;;;11.07;4.43;;;7.40;44.20;;;;;;5037143;28;20212;-64
2021/04/13 06:31:03;;;;;;;5.90;2.50;;;6.70;99.90;;;;;;5037998;28;20510;-63
2021/04/13 06:33:30;;;;;;;2.60;1.65;;;6.20;1.00;;;;;;5038008;28;20179;-64
2021/04/13 06:35:58;;;;;;;6.78;2.13;;;5.30;1.00;;;;;;5038356;28;20231;-64
2021/04/13 06:38:25;;;;;;;7.53;1.90;;;5.40;99.90;;;;;;5033593;28;20280;-62
2021/04/13 06:41:31;;;;;;;2.90;2.13;;;5.50;99.90;;;;;;5037307;28;20182;-67
2021/04/13 06:44:15;;;;;;;3.35;2.15;;;5.70;99.90;;;;;;5036678;28;20184;-66
2021/04/13 06:46:50;;;;;;;5.18;2.63;;;5.80;99.90;;;;;;5036934;28;20501;-68
2021/04/13 06:49:25;;;;;;;4.75;2.28;;;6.50;1.00;;;;;;5036811;28;20334;-67
2021/04/13 06:52:14;;;;;;;6.18;2.10;;;7.30;35.20;;;;;;5036995;28;20285;-66
2021/04/13 06:55:01;;;;;;;4.15;1.90;;;7.80;1.00;;;;;;5036212;28;20267;-67
2021/04/13 06:57:46;;;;;;;4.80;2.80;;;8.30;99.90;;;;;;5036186;28;20220;-66
2021/04/13 07:00:36;;;;;;;3.13;1.70;;;8.40;99.90;;;;;;5036310;28;20231;-67
2021/04/13 07:03:26;;;;;;;7.45;1.45;;;9.10;99.90;;;;;;5035319;28;20192;-67
2021/04/13 07:06:01;;;;;;;3.72;1.05;;;7.90;1.00;;;;;;5036596;28;20264;-65
2021/04/13 07:08:38;;;;;;;3.10;1.77;;;7.70;99.90;;;;;;5035812;28;20644;-66
2021/04/13 07:11:26;;;;;;;3.85;1.40;;;7.10;1.00;;;;;;5016683;28;20261;-67
2021/04/13 07:14:11;;;;;;;9.48;2.20;;;6.80;1.00;;;;;;5016397;28;20561;-67
2021/04/13 07:16:52;;;;;;;2.25;0.88;;;6.70;1.00;;;;;;5016339;28;20278;-67
2021/04/13 07:19:30;;;;;;;4.13;1.15;;;6.70;1.00;;;;;;5016049;28;20268;-67
2021/04/13 07:22:02;;;;;;;3.90;1.10;;;6.70;1.00;;;;;;5016419;28;20205;-67
2021/04/13 07:24:45;;;;;;;2.03;1.05;;;6.70;28.30;;;;;;5014871;28;20193;-67
2021/04/13 07:27:15;;;;;;;2.10;1.15;;;7.10;1.00;;;;;;5025574;28;20217;-67
2021/04/13 07:29:45;;;;;;;2.03;1.33;;;7.00;1.00;;;;;;5014543;28;20193;-64
2021/04/13 07:32:11;;;;;;;4.05;1.40;;;6.70;40.90;;;;;;5015940;28;20234;-61
2021/04/13 07:34:39;;;;;;;3.80;1.00;;;6.80;1.00;;;;;;5015579;28;20247;-61
2021/04/13 07:37:29;;;;;;;4.85;1.60;;;6.90;1.00;;;;;;5015956;28;20221;-61
2021/04/13 07:39:57;;;;;;;2.58;0.95;;;7.10;1.00;;;;;;5015829;28;20623;-62
2021/04/13 07:42:28;;;;;;;9.70;1.33;;;7.20;99.90;;;;;;5015788;28;20201;-60
2021/04/13 07:45:21;;;;;;;4.63;1.08;;;7.00;60.90;;;;;;5015332;28;20703;-62
2021/04/13 07:48:17;;;;;;;3.63;1.65;;;7.10;1.00;;;;;;5016434;28;20248;-61
2021/04/13 07:50:51;;;;;;;3.47;1.20;;;6.90;99.90;;;;;;5016348;28;20178;-62
2021/04/13 07:53:32;;;;;;;1.90;0.90;;;6.70;99.90;;;;;;5015887;28;20230;-63
2021/04/13 07:56:28;;;;;;;5.25;1.20;;;6.60;1.00;;;;;;5016151;28;20247;-63
2021/04/13 07:59:13;;;;;;;5.38;1.00;;;6.70;99.90;;;;;;5015847;28;20234;-61
2021/04/13 08:01:39;;;;;;;1.85;0.60;;;7.00;1.00;;;;;;5016061;28;20186;-62
2021/04/13 08:04:05;;;;;;;3.00;1.20;;;7.10;99.90;;;;;;5016172;28;20178;-65
2021/04/13 08:06:31;;;;;;;4.53;1.73;;;7.30;99.90;;;;;;5015911;28;20217;-63
2021/04/13 08:09:19;;;;;;;5.40;1.23;;;7.50;99.90;;;;;;5015448;28;20185;-62
2021/04/13 08:12:08;;;;;;;13.63;2.42;;;7.90;1.00;;;;;;5015369;28;20540;-63
2021/04/13 08:14:37;;;;;;;4.38;2.95;;;7.40;99.90;;;;;;5014896;28;20181;-58
2021/04/13 08:17:19;;;;;;;5.32;2.10;;;7.50;99.90;;;;;;5015195;28;20194;-59
2021/04/13 08:20:16;;;;;;;7.10;2.55;;;7.20;1.00;;;;;;5014940;28;20603;-59
2021/04/13 08:22:53;;;;;;;6.18;2.33;;;6.90;1.00;;;;;;5001759;28;20196;-62
2021/04/13 08:25:34;;;;;;;5.07;1.55;;;7.10;1.00;;;;;;5014651;28;20187;-63
2021/04/13 08:28:22;;;;;;;3.80;1.85;;;7.50;77.60;;;;;;5013833;28;20186;-60
2021/04/13 08:34:18;;;;;;;8.43;2.30;;;7.70;1.00;;;;;;5006706;28;20239;-62
2021/04/13 08:36:53;;;;;;;4.60;1.75;;;7.90;99.90;;;;;;5014698;28;20623;-62
2021/04/13 08:39:47;;;;;;;1.73;1.17;;;8.60;1.00;;;;;;5013722;28;20211;-61
2021/04/13 08:42:25;;;;;;;5.13;2.05;;;8.50;26.00;;;;;;5013760;28;20280;-66
2021/04/13 08:45:08;;;;;;;5.43;2.30;;;7.70;7.40;;;;;;5014718;28;20177;-62
2021/04/13 08:47:46;;;;;;;5.93;1.50;;;7.40;1.00;;;;;;5014910;28;20506;-60
2021/04/13 08:50:30;;;;;;;8.15;1.85;;;7.50;99.40;;;;;;5015091;28;20189;-66
2021/04/13 08:53:08;;;;;;;6.72;1.40;;;8.00;1.00;;;;;;5013580;28;20574;-66
2021/04/13 08:55:37;;;;;;;8.75;2.33;;;8.40;99.90;;;;;;5014674;28;20669;-67
2021/04/13 08:58:26;;;;;;;10.27;1.70;;;8.40;99.90;;;;;;5014704;28;20218;-65
2021/04/13 09:00:55;;;;;;;7.20;1.45;;;8.00;1.00;;;;;;5009146;28;20191;-65
2021/04/13 09:03:24;;;;;;;6.25;2.50;;;7.70;1.00;;;;;;5013589;28;20179;-61
2021/04/13 09:06:18;;;;;;;7.20;1.98;;;8.10;99.90;;;;;;5014496;28;20685;-65
2021/04/13 09:09:05;;;;;;;9.65;1.88;;;8.60;99.90;;;;;;5014500;28;20595;-65
2021/04/13 09:11:48;;;;;;;5.25;1.60;;;8.20;1.00;;;;;;5014710;28;20252;-65
2021/04/13 09:14:16;;;;;;;9.15;4.85;;;8.30;99.90;;;;;;5014280;28;20663;-64
2021/04/13 09:16:54;;;;;;;8.30;1.90;;;8.40;99.90;;;;;;5013962;28;20190;-68
2021/04/13 09:19:28;;;;;;;5.25;1.55;;;8.80;99.90;;;;;;5014460;28;20207;-61
2021/04/13 09:21:54;;;;;;;9.55;3.00;;;9.20;1.00;;;;;;5005703;28;20236;-64
2021/04/13 09:24:37;;;;;;;4.57;1.87;;;9.90;1.00;;;;;;4994390;28;20446;-60
2021/04/13 09:27:33;;;;;;;4.57;1.65;;;10.00;99.90;;;;;;4994539;28;20430;-66
2021/04/13 09:30:18;;;;;;;4.07;1.75;;;9.40;99.90;;;;;;4994431;28;20352;-65
2021/04/13 09:32:46;;;;;;;7.70;1.42;;;9.40;1.00;;;;;;5010053;28;20195;-63
2021/04/13 09:35:18;;;;;;;7.65;1.95;;;9.70;99.90;;;;;;4994202;28;20252;-65
2021/04/13 09:37:52;;;;;;;4.40;1.30;;;10.00;99.90;;;;;;4994107;28;20206;-63
2021/04/13 09:40:44;;;;;;;6.13;1.98;;;9.70;99.90;;;;;;4994044;28;20178;-66
2021/04/13 09:43:22;;;;;;;4.55;1.40;;;9.40;99.90;;;;;;4993603;28;20176;-61
2021/04/13 09:46:00;;;;;;;3.42;1.48;;;9.70;99.90;;;;;;4992858;28;20178;-67
2021/04/13 09:48:58;;;;;;;4.45;1.77;;;9.60;99.90;;;;;;5033628;28;20235;-62
2021/04/13 09:51:38;;;;;;;10.43;2.25;;;9.60;99.90;;;;;;5032351;28;20185;-68
2021/04/13 09:54:10;;;;;;;8.18;3.15;;;10.30;95.30;;;;;;5033118;28;20611;-63
2021/04/13 09:57:10;;;;;;;10.13;2.00;;;10.60;48.60;;;;;;5033320;28;20193;-63
2021/04/13 10:00:00;;;;;;;4.18;1.55;;;10.10;45.80;;;;;;5033166;28;20189;-63
2021/04/13 10:02:35;;;;;;;5.25;1.77;;;9.30;99.90;;;;;;5033702;28;20201;-62
2021/04/13 10:05:02;;;;;;;4.47;1.67;;;8.60;99.90;;;;;;5033363;28;20242;-66
2021/04/13 10:07:59;;;;;;;6.93;1.42;;;8.10;99.90;;;;;;5033563;28;20244;-66
2021/04/13 10:10:34;;;;;;;5.75;2.05;;;8.00;1.00;;;;;;5033462;28;20177;-66
2021/04/13 10:12:59;;;;;;;3.35;1.27;;;8.00;1.00;;;;;;5033088;28;20187;-61
2021/04/13 10:16:02;;;;;;;5.77;1.57;;;8.40;1.00;;;;;;5033266;28;20182;-62
2021/04/13 10:19:06;;;;;;;6.22;1.40;;;8.60;99.90;;;;;;5033901;28;20209;-65
2021/04/13 10:21:44;;;;;;;3.80;1.15;;;8.50;99.90;;;;;;5003132;28;20188;-64
2021/04/13 10:24:40;;;;;;;3.47;1.77;;;9.00;99.90;;;;;;5033816;28;20234;-65
2021/04/13 10:27:08;;;;;;;4.00;1.35;;;9.20;99.90;;;;;;5032323;28;20275;-65
2021/04/13 10:29:41;;;;;;;3.75;1.42;;;8.90;99.90;;;;;;5022007;28;20279;-64
2021/04/13 10:32:36;;;;;;;5.75;1.05;;;8.50;99.90;;;;;;5012400;28;20614;-59
2021/04/13 10:35:32;;;;;;;4.72;1.15;;;7.60;99.90;;;;;;5005227;28;20203;-60
2021/04/13 10:38:31;;;;;;;4.95;1.83;;;7.70;99.90;;;;;;5012119;28;20218;-59
2021/04/13 10:41:25;;;;;;;5.75;1.02;;;8.10;45.50;;;;;;5013583;28;20190;-61
2021/04/13 10:44:08;;;;;;;4.15;0.80;;;8.10;1.00;;;;;;5013269;28;20163;-61
2021/04/13 10:47:11;;;;;;;2.17;0.85;;;7.90;1.00;;;;;;5013688;28;20201;-61
2021/04/13 10:50:16;;;;;;;3.03;1.02;;;7.80;40.80;;;;;;4997553;28;20639;-67
2021/04/13 10:53:03;;;;;;;7.03;1.45;;;8.10;1.00;;;;;;5013371;28;20185;-60
2021/04/13 10:55:40;;;;;;;3.20;1.05;;;8.20;1.00;;;;;;5013566;28;20182;-64
2021/04/13 10:58:18;;;;;;;3.13;1.30;;;8.30;5.70;;;;;;5013734;28;20548;-64
2021/04/13 11:00:47;;;;;;;3.83;1.55;;;8.90;1.00;;;;;;5013444;28;20612;-61
2021/04/13 11:03:55;;;;;;;3.55;1.58;;;9.10;11.50;;;;;;5012977;28;20262;-65
2021/04/13 11:07:10;;;;;;;3.50;0.77;;;9.40;1.00;;;;;;5016724;28;20228;-65
2021/04/13 11:09:39;;;;;;;2.85;1.20;;;8.50;1.00;;;;;;4980490;28;20196;-66
2021/04/13 11:12:23;;;;;;;1.83;0.80;;;7.70;69.90;;;;;;5016530;28;20257;-66
2021/04/13 11:14:57;;;;;;;3.65;1.20;;;7.90;99.90;;;;;;5016540;28;20265;-63
2021/04/13 11:17:59;;;;;;;2.95;1.55;;;8.00;99.90;;;;;;5016906;28;20205;-65
2021/04/13 11:20:30;;;;;;;4.63;1.75;;;7.80;99.90;;;;;;5013792;28;20178;-65
2021/04/13 11:23:30;;;;;;;4.22;1.90;;;8.20;1.00;;;;;;5016690;28;20630;-60
2021/04/13 11:26:33;;;;;;;3.30;1.00;;;8.40;99.90;;;;;;4997144;28;20598;-61
2021/04/13 11:29:33;;;;;;;4.38;2.20;;;8.40;99.90;;;;;;5007810;28;20196;-63
2021/04/13 11:32:23;;;;;;;1.30;0.93;;;9.00;43.30;;;;;;5015200;28;20187;-63
2021/04/13 11:35:01;;;;;;;3.08;1.25;;;9.00;8.90;;;;;;5016132;28;20186;-68
2021/04/13 11:37:33;;;;;;;4.00;1.30;;;9.10;1.00;;;;;;5016137;28;20513;-62
2021/04/13 11:40:13;;;;;;;7.78;1.73;;;9.20;1.00;;;;;;5031662;28;20201;-64
2021/04/13 11:42:42;;;;;;;3.60;0.52;;;8.90;1.00;;;;;;5015878;28;20205;-62
2021/04/13 11:45:25;;;;;;;5.40;1.40;;;8.40;20.00;;;;;;5016053;28;20213;-60
2021/04/13 11:48:00;;;;;;;3.60;0.73;;;8.40;1.00;;;;;;5016195;28;20193;-61
2021/04/13 11:50:53;;;;;;;5.57;1.50;;;8.60;1.00;;;;;;5016023;28;20185;-62
2021/04/13 11:53:27;;;;;;;6.40;1.25;;;8.80;1.00;;;;;;5014633;28;20190;-63
2021/04/13 11:55:54;;;;;;;4.68;1.35;;;9.00;1.00;;;;;;5015984;28;20192;-64
2021/04/13 11:58:33;;;;;;;7.93;1.45;;;9.00;1.00;;;;;;5015588;28;20538;-62
2021/04/13 12:01:14;;;;;;;1.90;0.80;;;9.00;1.00;;;;;;5003518;28;20494;-61
2021/04/13 12:03:56;;;;;;;2.08;0.98;;;8.70;1.00;;;;;;4997917;28;20197;-60
2021/04/13 12:06:51;;;;;;;0.73;0.50;;;8.80;1.00;;;;;;5015572;28;20208;-61
2021/04/13 12:10:02;;;;;;;6.38;1.10;;;8.80;1.00;;;;;;5031216;28;20688;-61
2021/04/13 12:12:31;;;;;;;5.75;0.80;;;8.80;26.60;;;;;;5015796;28;20178;-65
2021/04/13 12:15:05;;;;;;;1.63;1.35;;;9.20;1.00;;;;;;5015020;28;20179;-64
2021/04/13 12:17:38;;;;;;;1.60;0.80;;;8.80;1.00;;;;;;5015274;28;20219;-61
2021/04/13 12:20:23;;;;;;;3.28;1.00;;;8.90;1.00;;;;;;5014966;28;20618;-61
2021/04/13 12:22:49;;;;;;;4.10;1.40;;;8.90;1.00;;;;;;5015074;28;20508;-60
2021/04/13 12:25:40;;;;;;;2.22;1.05;;;8.90;1.00;;;;;;5030359;28;20183;-60
2021/04/13 12:28:26;;;;;;;2.38;1.00;;;8.80;99.90;;;;;;5015067;28;20186;-62
2021/04/13 12:31:22;;;;;;;4.55;1.45;;;8.60;99.10;;;;;;5030490;28;20178;-67
2021/04/13 12:33:52;;;;;;;2.28;0.88;;;9.10;1.00;;;;;;5014597;28;20184;-67
2021/04/13 12:36:41;;;;;;;1.55;0.70;;;8.90;24.90;;;;;;5014782;28;20194;-66
2021/04/13 12:39:08;;;;;;;1.30;0.70;;;8.90;15.30;;;;;;5013579;28;20697;-67
2021/04/13 12:41:54;;;;;;;5.00;1.00;;;8.50;51.90;;;;;;5013903;28;20202;-67
2021/04/13 12:44:23;;;;;;;2.45;1.42;;;8.30;99.90;;;;;;5014969;28;20188;-66
2021/04/13 12:46:51;;;;;;;16.98;8.57;;;8.20;1.00;;;;;;5015244;28;20186;-67
2021/04/13 12:49:16;;;;;;;2.97;0.70;;;8.30;1.00;;;;;;5014000;28;20261;-68
2021/04/13 12:52:05;;;;;;;3.00;1.20;;;8.20;99.90;;;;;;5014810;28;20329;-68
2021/04/13 12:54:32;;;;;;;2.85;1.35;;;8.50;99.90;;;;;;5014580;28;20178;-66
2021/04/13 12:57:11;;;;;;;3.33;1.25;;;8.70;25.30;;;;;;5014526;28;20265;-66
2021/04/13 12:59:38;;;;;;;1.90;0.95;;;9.00;30.30;;;;;;5014391;28;20515;-65
2021/04/13 13:02:27;;;;;;;1.45;0.82;;;8.50;99.90;;;;;;5014653;28;20186;-66
2021/04/13 13:04:52;;;;;;;3.50;1.02;;;7.90;24.00;;;;;;5013874;28;20178;-67
2021/04/13 13:07:28;;;;;;;3.63;0.97;;;7.50;1.00;;;;;;5014205;28;20197;-66
2021/04/13 13:09:54;;;;;;;1.10;0.55;;;7.30;4.60;;;;;;5013951;28;20186;-66
2021/04/13 13:12:28;;;;;;;4.10;0.80;;;7.60;37.50;;;;;;5013796;28;20187;-67
2021/04/13 13:15:04;;;;;;;2.33;1.00;;;8.10;59.40;;;;;;5013741;28;20192;-67
2021/04/13 13:17:35;;;;;;;3.50;1.20;;;8.50;1.00;;;;;;5013795;28;20293;-68
2021/04/13 13:20:02;;;;;;;4.43;1.00;;;8.40;99.90;;;;;;5013671;28;20646;-66
2021/04/13 13:22:30;;;;;;;1.50;0.63;;;8.40;99.90;;;;;;5013294;28;20193;-67
2021/04/13 13:25:13;;;;;;;3.75;1.58;;;8.60;99.90;;;;;;5013324;28;20488;-66
2021/04/13 13:27:39;;;;;;;8.52;1.83;;;8.50;99.90;;;;;;5013094;28;20200;-65
2021/04/13 13:30:09;;;;;;;2.37;0.90;;;8.70;88.90;;;;;;5013658;28;20182;-65
2021/04/13 13:32:36;;;;;;;3.72;0.50;;;8.60;99.90;;;;;;5028920;28;20181;-66
2021/04/13 13:35:05;;;;;;;6.13;1.02;;;8.70;1.00;;;;;;5013473;28;20194;-67
2021/04/13 13:37:44;;;;;;;3.97;1.38;;;8.70;1.00;;;;;;5013302;28;20221;-67
2021/04/13 13:40:32;;;;;;;0.70;0.70;;;8.60;1.00;;;;;;5029206;28;20281;-67
2021/04/13 13:42:59;;;;;;;11.23;1.67;;;8.90;1.00;;;;;;5013839;28;20200;-61
2021/04/13 13:45:32;;;;;;;4.10;1.08;;;8.80;13.40;;;;;;5013412;28;20205;-62
2021/04/13 13:47:58;;;;;;;2.22;0.82;;;9.10;1.00;;;;;;5012920;28;20190;-63
2021/04/13 13:50:34;;;;;;;4.73;1.50;;;9.00;1.00;;;;;;5013748;28;20604;-62
2021/04/13 13:53:00;;;;;;;5.07;1.20;;;8.70;99.90;;;;;;5013659;28;20212;-61
2021/04/13 13:55:36;;;;;;;3.53;1.03;;;9.20;99.90;;;;;;5013203;28;20289;-60